createdAt,value
2023-03-01T00:00:47.556Z,0.70
2023-03-01T00:03:14.462Z,0.70
2023-03-01T00:05:47.557Z,0.70
2023-03-01T00:08:14.167Z,0.70
2023-03-01T00:10:40.779Z,0.70
2023-03-01T00:13:07.408Z,0.70
2023-03-01T00:15:35.871Z,0.70
2023-03-01T00:18:02.505Z,0.70
2023-03-01T00:20:29.299Z,0.90
2023-03-01T00:22:55.892Z,0.60
2023-03-01T00:25:22.525Z,0.70
2023-03-01T00:27:49.987Z,0.70
2023-03-01T00:30:16.720Z,0.60
2023-03-01T00:32:43.308Z,0.60
2023-03-01T00:35:09.913Z,0.60
2023-03-01T00:37:36.551Z,0.60
2023-03-01T00:40:07.053Z,1.20
2023-03-01T00:42:33.883Z,0.60
2023-03-01T00:45:00.482Z,0.60
2023-03-01T00:47:29.280Z,0.60
2023-03-01T00:49:55.927Z,0.60
2023-03-01T00:52:22.561Z,0.70
2023-03-01T00:54:49.357Z,1.00
2023-03-01T00:57:15.963Z,0.50
2023-03-01T00:59:42.564Z,1.10
2023-03-01T01:02:09.194Z,0.50
2023-03-01T01:04:35.933Z,0.50
2023-03-01T01:07:02.549Z,0.60
2023-03-01T01:09:29.212Z,0.60
2023-03-01T01:11:55.868Z,0.80
2023-03-01T01:14:22.466Z,0.60
2023-03-01T01:16:49.525Z,0.60
2023-03-01T01:19:16.415Z,0.60
2023-03-01T01:21:45.989Z,0.60
2023-03-01T01:24:12.807Z,0.60
2023-03-01T01:26:39.393Z,0.60
2023-03-01T01:29:06.548Z,0.60
2023-03-01T01:31:33.600Z,0.60
2023-03-01T01:34:01.107Z,0.60
2023-03-01T01:36:28.423Z,0.60
2023-03-01T01:38:55.213Z,0.60
2023-03-01T01:41:22.715Z,0.60
2023-03-01T01:44:07.916Z,0.60
2023-03-01T01:46:37.531Z,0.60
2023-03-01T01:49:13.069Z,0.50
2023-03-01T01:51:41.328Z,0.50
2023-03-01T01:54:16.525Z,1.00
2023-03-01T01:56:45.376Z,0.50
2023-03-01T01:59:12.546Z,0.50
2023-03-01T02:01:39.148Z,1.00
2023-03-01T02:04:07.448Z,0.70
2023-03-01T02:06:42.251Z,0.50
2023-03-01T02:09:12.284Z,0.50
2023-03-01T02:11:39.054Z,0.50
2023-03-01T02:14:06.056Z,0.80
2023-03-01T02:16:33.822Z,0.60
2023-03-01T02:19:00.669Z,0.60
2023-03-01T02:21:30.127Z,0.60
2023-03-01T02:23:57.147Z,0.50
2023-03-01T02:26:34.230Z,1.10
2023-03-01T02:29:00.864Z,0.50
2023-03-01T02:31:43.045Z,0.40
2023-03-01T02:34:20.675Z,0.40
2023-03-01T02:36:49.742Z,0.30
2023-03-01T02:39:18.695Z,0.30
2023-03-01T02:41:48.049Z,0.60
2023-03-01T02:44:14.894Z,0.20
2023-03-01T02:47:07.716Z,0.10
2023-03-01T02:49:36.548Z,0.10
2023-03-01T02:52:24.814Z,0.10
2023-03-01T02:55:02.902Z,0.00
2023-03-01T02:57:30.773Z,0.00
2023-03-01T02:59:58.378Z,0.00
2023-03-01T03:02:37.028Z,0.00
2023-03-01T03:05:07.141Z,0.00
2023-03-01T03:07:35.295Z,-0.10
2023-03-01T03:10:02.878Z,0.00
2023-03-01T03:12:29.486Z,-0.10
2023-03-01T03:14:56.088Z,-0.20
2023-03-01T03:17:22.663Z,-0.20
2023-03-01T03:19:49.379Z,-0.30
2023-03-01T03:22:16.050Z,-0.30
2023-03-01T03:24:42.782Z,-0.30
2023-03-01T03:27:09.427Z,-0.30
2023-03-01T03:29:36.066Z,0.00
2023-03-01T03:32:02.792Z,-0.30
2023-03-01T03:34:29.452Z,-0.20
2023-03-01T03:36:57.735Z,-0.30
2023-03-01T03:39:24.698Z,-0.20
2023-03-01T03:41:51.255Z,-0.20
2023-03-01T03:44:17.858Z,-0.20
2023-03-01T03:46:44.540Z,0.30
2023-03-01T03:49:11.190Z,0.00
2023-03-01T03:51:37.822Z,-0.10
2023-03-01T03:54:04.720Z,0.00
2023-03-01T03:56:31.620Z,0.70
2023-03-01T03:58:58.351Z,0.00
2023-03-01T04:01:25.072Z,-0.10
2023-03-01T04:03:55.416Z,-0.10
2023-03-01T04:06:22.234Z,0.00
2023-03-01T04:08:52.019Z,0.00
2023-03-01T04:11:27.890Z,0.60
2023-03-01T04:13:55.563Z,-0.10
2023-03-01T04:16:22.530Z,-0.10
2023-03-01T04:18:49.230Z,-0.10
2023-03-01T04:21:15.988Z,-0.10
2023-03-01T04:23:42.620Z,-0.10
2023-03-01T04:26:09.385Z,-0.10
2023-03-01T04:28:37.522Z,-0.10
2023-03-01T04:31:14.169Z,0.00
2023-03-01T04:33:45.179Z,-0.10
2023-03-01T04:36:12.384Z,-0.10
2023-03-01T04:38:39.294Z,0.40
2023-03-01T04:41:07.259Z,-0.10
2023-03-01T04:43:35.104Z,0.10
2023-03-01T04:46:07.140Z,0.20
2023-03-01T04:48:33.800Z,-0.10
2023-03-01T04:51:00.883Z,-0.10
2023-03-01T04:53:28.043Z,-0.10
2023-03-01T04:55:55.214Z,-0.20
2023-03-01T04:58:22.227Z,-0.20
2023-03-01T05:00:48.924Z,0.10
2023-03-01T05:03:19.123Z,-0.20
2023-03-01T05:05:47.003Z,0.40
2023-03-01T05:08:18.232Z,-0.20
2023-03-01T05:10:50.008Z,-0.20
2023-03-01T05:13:21.818Z,-0.10
2023-03-01T05:15:50.044Z,-0.20
2023-03-01T05:18:16.676Z,-0.10
2023-03-01T05:20:43.368Z,0.20
2023-03-01T05:23:09.988Z,0.50
2023-03-01T05:25:41.060Z,-0.10
2023-03-01T05:28:12.142Z,-0.20
2023-03-01T05:30:40.161Z,-0.10
2023-03-01T05:33:11.320Z,-0.10
2023-03-01T05:35:37.986Z,-0.20
2023-03-01T05:38:04.748Z,-0.20
2023-03-01T05:40:34.141Z,0.30
2023-03-01T05:43:00.749Z,-0.20
2023-03-01T05:45:28.153Z,0.40
2023-03-01T05:47:56.033Z,-0.20
2023-03-01T05:50:26.383Z,-0.20
2023-03-01T05:52:57.476Z,-0.20
2023-03-01T05:55:24.265Z,0.00
2023-03-01T05:57:51.358Z,-0.20
2023-03-01T06:00:19.577Z,-0.30
2023-03-01T06:02:46.782Z,-0.20
2023-03-01T06:05:14.239Z,-0.20
2023-03-01T06:07:41.584Z,-0.20
2023-03-01T06:10:09.366Z,-0.10
2023-03-01T06:12:36.874Z,-0.20
2023-03-01T06:15:04.747Z,-0.10
2023-03-01T06:17:32.579Z,-0.10
2023-03-01T06:19:59.359Z,-0.10
2023-03-01T06:22:26.074Z,-0.10
2023-03-01T06:24:52.708Z,0.30
2023-03-01T06:27:19.390Z,0.00
2023-03-01T06:29:45.981Z,0.10
2023-03-01T06:32:12.678Z,0.20
2023-03-01T06:34:39.494Z,0.40
2023-03-01T06:37:06.894Z,0.40
2023-03-01T06:39:33.900Z,0.30
2023-03-01T06:42:00.559Z,0.30
2023-03-01T06:44:27.784Z,0.30
2023-03-01T06:46:55.000Z,0.40
2023-03-01T06:49:24.699Z,0.80
2023-03-01T06:51:51.546Z,0.80
2023-03-01T06:54:18.882Z,0.60
2023-03-01T06:56:47.858Z,0.90
2023-03-01T06:59:14.597Z,1.20
2023-03-01T07:01:41.305Z,1.70
2023-03-01T07:04:07.939Z,1.90
2023-03-01T07:06:34.559Z,2.00
2023-03-01T07:09:01.139Z,2.40
2023-03-01T07:11:27.853Z,3.10
2023-03-01T07:13:54.548Z,2.90
2023-03-01T07:16:21.535Z,3.40
2023-03-01T07:18:48.227Z,3.60
2023-03-01T07:21:15.499Z,4.00
2023-03-01T07:23:42.152Z,4.40
2023-03-01T07:26:08.769Z,4.80
2023-03-01T07:28:37.029Z,5.60
2023-03-01T07:31:04.137Z,5.10
2023-03-01T07:33:30.985Z,5.30
2023-03-01T07:35:59.108Z,5.20
2023-03-01T07:38:26.434Z,5.30
2023-03-01T07:40:53.069Z,5.40
2023-03-01T07:43:19.719Z,5.60
2023-03-01T07:45:46.469Z,6.00
2023-03-01T07:48:13.138Z,6.20
2023-03-01T07:50:39.774Z,7.10
2023-03-01T07:53:06.456Z,7.70
2023-03-01T07:55:33.059Z,8.30
2023-03-01T07:57:59.736Z,8.80
2023-03-01T08:00:26.349Z,9.10
2023-03-01T08:02:52.987Z,9.80
2023-03-01T08:05:19.554Z,10.50
2023-03-01T08:07:46.144Z,10.80
2023-03-01T08:10:12.818Z,11.40
2023-03-01T08:12:39.421Z,11.50
2023-03-01T08:15:06.671Z,12.00
2023-03-01T08:17:33.240Z,12.00
2023-03-01T08:19:59.831Z,12.30
2023-03-01T08:22:26.480Z,12.20
2023-03-01T08:24:53.071Z,12.40
2023-03-01T08:27:19.660Z,12.50
2023-03-01T08:29:46.286Z,12.60
2023-03-01T08:32:13.014Z,12.70
2023-03-01T08:34:40.480Z,12.90
2023-03-01T08:37:08.268Z,13.10
2023-03-01T08:39:35.000Z,13.00
2023-03-01T08:42:01.683Z,13.30
2023-03-01T08:44:28.362Z,12.90
2023-03-01T08:46:56.625Z,13.10
2023-03-01T08:49:23.241Z,13.40
2023-03-01T08:51:50.255Z,13.60
2023-03-01T08:54:20.969Z,13.90
2023-03-01T08:56:48.115Z,14.10
2023-03-01T08:59:15.268Z,14.10
2023-03-01T09:01:44.486Z,14.50
2023-03-01T09:04:12.294Z,14.60
2023-03-01T09:06:39.355Z,14.70
2023-03-01T09:09:06.390Z,15.60
2023-03-01T09:11:34.142Z,15.20
2023-03-01T09:14:01.134Z,16.40
2023-03-01T09:16:27.884Z,17.10
2023-03-01T09:18:55.565Z,17.60
2023-03-01T09:21:37.599Z,17.70
2023-03-01T09:24:06.517Z,18.60
2023-03-01T09:26:33.580Z,19.00
2023-03-01T09:29:00.471Z,19.60
2023-03-01T09:31:27.262Z,19.60
2023-03-01T09:33:54.869Z,19.30
2023-03-01T09:36:22.497Z,19.70
2023-03-01T09:38:49.547Z,19.40
2023-03-01T09:41:36.495Z,20.60
2023-03-01T09:44:08.946Z,20.80
2023-03-01T09:46:39.153Z,21.20
2023-03-01T09:49:11.563Z,21.50
2023-03-01T09:51:38.217Z,20.80
2023-03-01T09:54:05.882Z,21.40
2023-03-01T09:56:45.265Z,21.00
2023-03-01T09:59:14.849Z,20.90
2023-03-01T10:01:47.281Z,20.90
2023-03-01T10:04:29.213Z,20.70
2023-03-01T10:07:11.200Z,21.20
2023-03-01T10:09:38.976Z,21.40
2023-03-01T10:12:08.673Z,22.10
2023-03-01T10:14:38.808Z,21.70
2023-03-01T10:17:11.357Z,22.40
2023-03-01T10:19:42.530Z,22.70
2023-03-01T10:22:23.670Z,22.20
2023-03-01T10:24:51.514Z,22.30
2023-03-01T10:27:25.967Z,22.40
2023-03-01T10:30:12.156Z,22.50
2023-03-01T10:32:39.094Z,22.60
2023-03-01T10:35:17.265Z,23.00
2023-03-01T10:38:03.586Z,23.10
2023-03-01T10:40:30.422Z,22.80
2023-03-01T10:43:01.596Z,22.40
2023-03-01T10:45:31.288Z,22.10
2023-03-01T10:48:26.901Z,22.30
2023-03-01T10:50:59.691Z,22.20
2023-03-01T10:53:33.038Z,22.60
2023-03-01T10:56:19.929Z,23.00
2023-03-01T10:59:03.767Z,22.20
2023-03-01T11:01:33.657Z,22.50
2023-03-01T11:04:06.603Z,22.50
2023-03-01T11:06:34.437Z,22.70
2023-03-01T11:09:19.736Z,22.90
2023-03-01T11:11:46.472Z,22.80
2023-03-01T11:14:27.360Z,22.40
2023-03-01T11:17:05.205Z,22.10
2023-03-01T11:19:32.478Z,22.00
2023-03-01T11:22:25.503Z,21.80
2023-03-01T11:25:08.499Z,21.40
2023-03-01T11:27:40.140Z,20.80
2023-03-01T11:30:27.280Z,21.20
2023-03-01T11:33:09.357Z,21.30
2023-03-01T11:35:43.199Z,21.10
2023-03-01T11:38:17.616Z,21.10
2023-03-01T11:40:49.262Z,21.30
2023-03-01T11:43:34.139Z,20.80
2023-03-01T11:46:07.285Z,20.90
2023-03-01T11:48:50.082Z,20.30
2023-03-01T11:51:22.919Z,19.70
2023-03-01T11:53:55.736Z,20.00
2023-03-01T11:56:23.970Z,20.20
2023-03-01T11:59:20.217Z,20.20
2023-03-01T12:02:05.392Z,19.70
2023-03-01T12:04:32.107Z,19.20
2023-03-01T12:07:01.267Z,19.40
2023-03-01T12:09:34.000Z,19.00
2023-03-01T12:12:06.543Z,19.10
2023-03-01T12:14:35.900Z,18.80
2023-03-01T12:17:02.552Z,18.90
2023-03-01T12:19:33.138Z,18.90
2023-03-01T12:22:10.779Z,18.90
2023-03-01T12:24:50.159Z,19.50
2023-03-01T12:27:29.014Z,19.90
2023-03-01T12:30:06.058Z,20.70
2023-03-01T12:32:42.488Z,21.10
2023-03-01T12:35:18.254Z,21.60
2023-03-01T12:37:47.906Z,21.40
2023-03-01T12:40:27.047Z,21.80
2023-03-01T12:42:59.717Z,23.00
2023-03-01T12:45:32.569Z,22.90
2023-03-01T12:48:05.194Z,22.80
2023-03-01T12:50:58.239Z,22.30
2023-03-01T12:53:26.911Z,21.70
2023-03-01T12:55:55.486Z,22.00
2023-03-01T12:58:50.635Z,21.50
2023-03-01T13:01:33.950Z,21.60
2023-03-01T13:04:19.289Z,21.30
2023-03-01T13:06:54.859Z,21.50
2023-03-01T13:09:31.658Z,21.30
2023-03-01T13:11:58.421Z,21.10
2023-03-01T13:14:25.024Z,20.40
2023-03-01T13:16:52.711Z,20.50
2023-03-01T13:19:20.518Z,21.00
2023-03-01T13:21:47.945Z,20.60
2023-03-01T13:24:34.534Z,20.30
2023-03-01T13:27:07.379Z,19.70
2023-03-01T13:29:47.699Z,20.20
2023-03-01T13:32:42.678Z,19.70
2023-03-01T13:35:17.880Z,19.30
2023-03-01T13:37:45.390Z,18.80
2023-03-01T13:40:19.583Z,18.40
2023-03-01T13:42:59.369Z,18.60
2023-03-01T13:45:42.072Z,18.40
2023-03-01T13:48:16.180Z,17.70
2023-03-01T13:50:51.765Z,16.90
2023-03-01T13:53:20.033Z,16.50
2023-03-01T13:55:48.630Z,16.80
2023-03-01T13:58:26.213Z,17.00
2023-03-01T14:01:00.371Z,16.80
2023-03-01T14:03:27.152Z,16.50
2023-03-01T14:06:12.524Z,16.50
2023-03-01T14:08:43.217Z,16.50
2023-03-01T14:11:25.232Z,16.40
2023-03-01T14:14:16.089Z,16.20
2023-03-01T14:16:46.709Z,16.00
2023-03-01T14:19:32.060Z,15.70
2023-03-01T14:22:17.297Z,15.60
2023-03-01T14:24:55.305Z,15.20
2023-03-01T14:27:22.270Z,14.60
2023-03-01T14:29:57.380Z,14.40
2023-03-01T14:32:28.934Z,14.30
2023-03-01T14:34:56.298Z,14.40
2023-03-01T14:37:30.095Z,14.30
2023-03-01T14:39:57.198Z,13.90
2023-03-01T14:42:25.147Z,13.60
2023-03-01T14:44:52.713Z,13.60
2023-03-01T14:47:24.689Z,13.60
2023-03-01T14:49:54.784Z,13.70
2023-03-01T14:52:23.096Z,13.70
2023-03-01T14:54:51.172Z,13.70
2023-03-01T14:57:19.887Z,13.40
2023-03-01T14:59:48.689Z,13.20
2023-03-01T15:02:20.749Z,13.10
2023-03-01T15:04:48.155Z,13.00
2023-03-01T15:07:15.224Z,12.90
2023-03-01T15:09:42.429Z,12.70
2023-03-01T15:12:27.939Z,12.60
2023-03-01T15:15:03.918Z,12.70
2023-03-01T15:17:33.181Z,12.60
2023-03-01T15:20:00.161Z,12.50
2023-03-01T15:22:27.555Z,12.30
2023-03-01T15:24:54.227Z,12.20
2023-03-01T15:27:22.837Z,12.20
2023-03-01T15:29:52.470Z,12.30
2023-03-01T15:32:27.480Z,12.20
2023-03-01T15:34:54.210Z,12.10
2023-03-01T15:37:39.257Z,12.20
2023-03-01T15:40:39.072Z,12.00
2023-03-01T15:43:06.566Z,11.60
2023-03-01T15:45:39.491Z,11.50
2023-03-01T15:48:18.334Z,11.30
2023-03-01T15:50:46.828Z,11.30
2023-03-01T15:53:15.410Z,11.20
2023-03-01T15:55:42.124Z,11.10
2023-03-01T15:58:16.698Z,11.10
2023-03-01T16:00:58.173Z,10.90
2023-03-01T16:03:27.168Z,10.70
2023-03-01T16:05:54.657Z,10.60
2023-03-01T16:08:21.454Z,10.40
2023-03-01T16:10:50.871Z,10.40
2023-03-01T16:13:18.282Z,10.20
2023-03-01T16:15:44.935Z,10.10
2023-03-01T16:18:12.517Z,10.00
2023-03-01T16:20:39.437Z,9.90
2023-03-01T16:23:07.511Z,9.80
2023-03-01T16:25:34.537Z,9.70
2023-03-01T16:28:05.001Z,9.60
2023-03-01T16:30:31.879Z,9.40
2023-03-01T16:32:59.457Z,9.40
2023-03-01T16:35:26.219Z,9.30
2023-03-01T16:37:54.777Z,9.10
2023-03-01T16:40:23.036Z,9.10
2023-03-01T16:42:51.033Z,8.90
2023-03-01T16:45:24.240Z,8.80
2023-03-01T16:47:55.157Z,8.80
2023-03-01T16:50:22.754Z,8.70
2023-03-01T16:52:49.450Z,8.70
2023-03-01T16:55:16.049Z,8.60
2023-03-01T16:57:42.686Z,8.50
2023-03-01T17:00:14.097Z,8.40
2023-03-01T17:02:42.242Z,8.30
2023-03-01T17:05:10.390Z,8.30
2023-03-01T17:07:37.512Z,8.20
2023-03-01T17:10:09.049Z,8.20
2023-03-01T17:12:35.978Z,8.00
2023-03-01T17:15:02.689Z,7.90
2023-03-01T17:17:29.357Z,7.90
2023-03-01T17:19:56.062Z,7.90
2023-03-01T17:22:22.800Z,7.80
2023-03-01T17:24:49.434Z,7.30
2023-03-01T17:27:16.164Z,7.70
2023-03-01T17:29:42.844Z,7.70
2023-03-01T17:32:10.087Z,7.60
2023-03-01T17:34:37.470Z,7.60
2023-03-01T17:37:04.145Z,7.60
2023-03-01T17:39:36.101Z,7.50
2023-03-01T17:42:05.087Z,7.50
2023-03-01T17:44:33.879Z,7.40
2023-03-01T17:47:00.778Z,7.40
2023-03-01T17:49:27.394Z,7.30
2023-03-01T17:51:54.155Z,7.20
2023-03-01T17:54:20.808Z,7.20
2023-03-01T17:56:47.464Z,7.20
2023-03-01T17:59:14.108Z,7.20
2023-03-01T18:01:42.599Z,7.10
2023-03-01T18:04:09.440Z,7.00
2023-03-01T18:06:37.105Z,7.00
2023-03-01T18:09:03.914Z,7.00
2023-03-01T18:11:30.838Z,7.00
2023-03-01T18:13:57.705Z,6.90
2023-03-01T18:16:24.394Z,7.30
2023-03-01T18:18:57.180Z,6.80
2023-03-01T18:21:25.563Z,6.70
2023-03-01T18:23:52.401Z,6.70
2023-03-01T18:26:22.114Z,6.70
2023-03-01T18:28:50.795Z,6.70
2023-03-01T18:31:18.637Z,6.60
2023-03-01T18:33:46.248Z,6.50
2023-03-01T18:36:20.156Z,6.50
2023-03-01T18:38:47.156Z,6.40
2023-03-01T18:41:13.735Z,8.20
2023-03-01T18:43:40.352Z,9.10
2023-03-01T18:46:07.369Z,9.70
2023-03-01T18:48:36.041Z,9.40
2023-03-01T18:51:13.956Z,9.30
2023-03-01T18:53:40.649Z,9.80
2023-03-01T18:56:07.880Z,9.90
2023-03-01T18:58:34.658Z,10.40
2023-03-01T19:01:04.265Z,9.80
2023-03-01T19:03:31.279Z,10.10
2023-03-01T19:05:59.062Z,10.10
2023-03-01T19:08:25.703Z,10.00
2023-03-01T19:10:59.338Z,10.10
2023-03-01T19:13:26.664Z,10.00
2023-03-01T19:16:02.045Z,9.50
2023-03-01T19:18:28.703Z,8.90
2023-03-01T19:21:03.853Z,8.60
2023-03-01T19:23:31.418Z,8.70
2023-03-01T19:26:01.945Z,8.60
2023-03-01T19:28:28.787Z,8.20
2023-03-01T19:31:00.367Z,8.10
2023-03-01T19:33:27.440Z,8.40
2023-03-01T19:35:56.453Z,8.10
2023-03-01T19:38:23.866Z,8.00
2023-03-01T19:40:50.932Z,8.00
2023-03-01T19:43:17.563Z,7.90
2023-03-01T19:45:45.940Z,7.50
2023-03-01T19:48:12.773Z,7.00
2023-03-01T19:50:39.438Z,6.70
2023-03-01T19:53:06.615Z,6.40
2023-03-01T19:55:35.789Z,6.10
2023-03-01T19:58:02.431Z,6.20
2023-03-01T20:00:29.033Z,5.90
2023-03-01T20:02:55.765Z,5.80
2023-03-01T20:05:22.439Z,5.70
2023-03-01T20:07:50.990Z,5.60
2023-03-01T20:10:18.024Z,5.50
2023-03-01T20:12:44.728Z,5.40
2023-03-01T20:15:11.840Z,5.30
2023-03-01T20:17:38.456Z,5.30
2023-03-01T20:20:05.373Z,5.20
2023-03-01T20:22:32.018Z,5.10
2023-03-01T20:24:58.722Z,5.40
2023-03-01T20:27:25.376Z,5.20
2023-03-01T20:29:52.240Z,5.10
2023-03-01T20:32:18.951Z,5.00
2023-03-01T20:34:45.650Z,5.20
2023-03-01T20:37:12.331Z,5.00
2023-03-01T20:39:39.003Z,4.90
2023-03-01T20:42:05.626Z,4.90
2023-03-01T20:44:32.163Z,4.90
2023-03-01T20:46:58.855Z,4.80
2023-03-01T20:49:25.514Z,4.80
2023-03-01T20:51:52.092Z,4.80
2023-03-01T20:54:18.676Z,4.80
2023-03-01T20:56:45.337Z,5.20
2023-03-01T20:59:12.037Z,4.70
2023-03-01T21:01:39.408Z,4.70
2023-03-01T21:04:06.159Z,4.70
2023-03-01T21:06:33.119Z,4.50
2023-03-01T21:08:59.819Z,4.50
2023-03-01T21:11:26.452Z,4.60
2023-03-01T21:13:53.626Z,4.50
2023-03-01T21:16:20.890Z,4.50
2023-03-01T21:18:47.816Z,4.50
2023-03-01T21:21:16.317Z,4.40
2023-03-01T21:23:43.629Z,4.40
2023-03-01T21:26:11.430Z,4.40
2023-03-01T21:28:38.435Z,4.40
2023-03-01T21:31:07.959Z,4.70
2023-03-01T21:33:35.099Z,4.40
2023-03-01T21:36:03.210Z,4.30
2023-03-01T21:38:31.136Z,4.30
2023-03-01T21:40:58.162Z,4.30
2023-03-01T21:43:24.765Z,4.20
2023-03-01T21:45:51.446Z,4.20
2023-03-01T21:48:18.100Z,3.60
2023-03-01T21:50:44.671Z,4.10
2023-03-01T21:53:11.318Z,4.20
2023-03-01T21:55:37.968Z,4.20
2023-03-01T21:58:04.633Z,4.20
2023-03-01T22:00:32.477Z,3.90
2023-03-01T22:02:59.139Z,4.20
2023-03-01T22:05:26.299Z,4.10
2023-03-01T22:07:52.944Z,4.10
2023-03-01T22:10:26.858Z,4.10
2023-03-01T22:12:57.200Z,4.10
2023-03-01T22:15:24.110Z,4.10
2023-03-01T22:17:50.894Z,4.10
2023-03-01T22:20:17.546Z,4.00
2023-03-01T22:22:44.354Z,4.00
2023-03-01T22:25:11.399Z,3.90
2023-03-01T22:27:38.158Z,3.90
2023-03-01T22:30:05.617Z,3.90
2023-03-01T22:32:32.291Z,4.30
2023-03-01T22:34:58.915Z,3.90
2023-03-01T22:37:25.528Z,3.90
2023-03-01T22:39:52.256Z,3.90
2023-03-01T22:42:18.908Z,3.90
2023-03-01T22:44:45.574Z,3.90
2023-03-01T22:47:12.173Z,3.90
2023-03-01T22:49:38.795Z,3.90
2023-03-01T22:52:05.568Z,3.90
2023-03-01T22:54:32.335Z,3.80
2023-03-01T22:56:58.942Z,3.80
2023-03-01T22:59:25.639Z,3.80
2023-03-01T23:01:52.840Z,3.80
2023-03-01T23:04:20.311Z,3.80
2023-03-01T23:06:56.011Z,3.70
2023-03-01T23:09:28.125Z,4.40
2023-03-01T23:11:55.051Z,3.70
2023-03-01T23:14:22.112Z,4.20
2023-03-01T23:16:49.413Z,3.70
2023-03-01T23:19:18.865Z,3.70
2023-03-01T23:21:49.851Z,3.70
2023-03-01T23:24:17.706Z,4.00
2023-03-01T23:26:45.716Z,3.70
2023-03-01T23:29:12.708Z,3.60
2023-03-01T23:31:39.949Z,3.60
2023-03-01T23:34:06.569Z,3.70
2023-03-01T23:36:34.117Z,4.10
2023-03-01T23:39:06.013Z,3.60
2023-03-01T23:41:33.883Z,3.60
2023-03-01T23:44:01.779Z,3.60
2023-03-01T23:46:29.959Z,3.60
2023-03-01T23:48:57.223Z,3.60
2023-03-01T23:51:24.242Z,3.60
2023-03-01T23:54:01.157Z,3.50
2023-03-01T23:56:29.212Z,3.50
2023-03-01T23:58:56.803Z,3.50
